Bruce, SD (57220)

16:24 CDT le 03 septembre 2015 (GMT -0500)
Arlington, SD | | Change Station
CLOSE
Current Station
Stations météorologiques personnelles
Location: Arlington, SD
Altitude: 1808 ft
Stations météo à proximité

Alt. 1808 ft 44.38 °N, 97.08 °W | Updated 8 seconds ago

Ciel dégagé
Ciel dégagé
86.4 ° F
Paraît 96 ° F
N
1.0
Vent Variable Vent de SSE
Gusts 7.0 mph

Aujourd'hui
Haut(e) -- | Bas -- ° F
--% Risque de précip.
Hier
Haut(e) -- | Bas -- ° F
Precip. -- pouce
6:52 AM 8:00 PM
Lune gibbeuse décroissante, 67% visible
Pression 29.81 pouce
Visibilité 10.0 Miles terrestres
Nuages Ciel dégagé
indice de chaleur 96 ° F
Point de rosée 75 ° F
Humidité 70%
Précipitations 0.00 pouce
Profondeur de la couche neigeuse Non disponible.
UV 3.6 sur 12
Pollen 11.10 sur 12
Qualité de l'air Non disponible.
Flu Activity Non disponible.
METAR KBKX 032115Z AUTO 14013G18KT 10SM CLR 31/22 A2981 RMK AO1
Pression 29.81 pouce
Visibilité 10.0 Miles terrestres
Nuages Ciel dégagé
indice de chaleur 96 ° F
Point de rosée 75 ° F
Humidité 70%
Précipitations 0.00 pouce
Profondeur de la couche neigeuse Non disponible.
UV 3.6 sur 12
Pollen 11.10 sur 12
Qualité de l'air Non disponible.
Flu Activity Non disponible.
METAR KBKX 032115Z AUTO 14013G18KT 10SM CLR 31/22 A2981 RMK AO1

10-Day Weather Forecast

×

Almanac

Astronomie

Sep. 03, 2015 Lever Coucher
Temps réel
Crépuscule civil
Crépuscule nautique
Crépuscule astronomique
Lune
Durée de lumière visible
Longueur du jour
Tomorrow will be .
, % of the Moon is Illuminated

Extrêmes aujourd'hui

State Highs State Lows

Community

WunderPhotos

Upload Photos

1,852,038 Photos téléchargées !

WunderBlogs® & News

Nearby

Qualité de l'air

  Qualité de l'air Indice de la qualité de l'air Polluant
Not available.

Épaisseur de neige

Station Depth Altitude

Activité sismique

Ville Distance Mag. Time & Date
Minimum magnitude displayed is 2.5.

Températures des eaux côtières

Lieu Température

Stations

Stations météo à proximité

Emplacement de la station Température Refroidissement éolien Point de rosée Humidité Vent Precip. Alt. Mise à jour Type